Time;durP1;ratioP1;P1;durP2;ratioP2;P2;SDS_P1;SDS_P2;PMS_P1;PMS_P2;Temp;Humidity;BMP_temperature;BMP_pressure;BME280_temperature;BME280_humidity;BME280_pressure;Samples;Min_cycle;Max_cycle;Signal;HPM_P1;HPM_P2
2021/08/25 00:02:10;;;;;;;10.57;5.05;;;15.10;99.90;;;;;;5031231;28;20033;-67
2021/08/25 00:04:38;;;;;;;8.25;4.93;;;15.10;99.90;;;;;;5047494;28;20227;-68
2021/08/25 00:07:07;;;;;;;8.77;5.30;;;15.10;99.90;;;;;;5031365;28;20089;-67
2021/08/25 00:09:34;;;;;;;10.73;5.07;;;15.20;99.90;;;;;;5031348;28;20029;-67
2021/08/25 00:12:00;;;;;;;7.38;4.82;;;15.20;99.90;;;;;;5031180;28;20454;-67
2021/08/25 00:14:26;;;;;;;9.70;5.13;;;15.20;99.90;;;;;;5032086;28;20036;-67
2021/08/25 00:16:52;;;;;;;9.25;5.15;;;15.20;99.90;;;;;;5031801;28;20060;-67
2021/08/25 00:19:18;;;;;;;7.40;4.93;;;15.10;99.90;;;;;;5032085;28;20119;-67
2021/08/25 00:21:43;;;;;;;9.57;5.13;;;15.10;99.90;;;;;;5032427;28;20088;-67
2021/08/25 00:24:09;;;;;;;10.55;5.05;;;15.10;99.90;;;;;;5031380;28;20136;-67
2021/08/25 00:26:35;;;;;;;6.30;4.38;;;15.20;99.90;;;;;;5032129;28;20102;-67
2021/08/25 00:29:00;;;;;;;6.97;4.72;;;15.20;99.90;;;;;;5032258;28;20540;-67
2021/08/25 00:31:26;;;;;;;7.38;4.90;;;15.20;99.90;;;;;;5032027;28;20056;-67
2021/08/25 00:33:52;;;;;;;11.48;4.85;;;15.20;99.90;;;;;;5031739;28;20033;-67
2021/08/25 00:36:17;;;;;;;7.53;4.65;;;15.20;99.90;;;;;;5032343;28;20033;-67
2021/08/25 00:38:43;;;;;;;7.63;4.78;;;15.20;99.90;;;;;;5031972;28;20022;-67
2021/08/25 00:41:09;;;;;;;8.80;5.43;;;15.10;99.90;;;;;;5032077;28;20033;-67
2021/08/25 00:43:35;;;;;;;9.25;4.95;;;15.00;99.90;;;;;;5030905;28;20033;-67
2021/08/25 00:46:00;;;;;;;7.47;5.25;;;14.90;99.90;;;;;;5032280;28;20437;-67
2021/08/25 00:48:26;;;;;;;6.45;4.25;;;14.90;99.90;;;;;;5031943;28;20096;-67
2021/08/25 00:50:53;;;;;;;6.78;4.90;;;14.70;99.90;;;;;;5031920;28;20068;-67
2021/08/25 00:53:22;;;;;;;8.10;5.03;;;14.90;99.90;;;;;;5032206;28;20044;-67
2021/08/25 00:55:49;;;;;;;7.60;4.85;;;14.80;99.90;;;;;;5031980;28;20542;-67
2021/08/25 00:58:15;;;;;;;8.80;5.00;;;14.90;99.90;;;;;;5031926;28;20136;-67
2021/08/25 01:00:51;;;;;;;8.23;4.93;;;14.80;99.90;;;;;;5030673;28;20030;-67
2021/08/25 01:03:45;;;;;;;8.90;5.40;;;14.60;99.90;;;;;;5031850;28;20076;-67
2021/08/25 01:06:21;;;;;;;8.57;5.28;;;14.40;99.90;;;;;;5052107;28;20033;-67
2021/08/25 01:08:48;;;;;;;10.23;5.68;;;14.30;99.90;;;;;;5051721;28;20558;-67
2021/08/25 01:11:13;;;;;;;8.15;5.45;;;14.40;99.90;;;;;;5050491;28;20063;-67
2021/08/25 01:13:40;;;;;;;8.75;5.38;;;14.30;99.90;;;;;;5051461;28;20040;-67
2021/08/25 01:16:07;;;;;;;7.97;4.85;;;14.20;99.90;;;;;;5051980;28;20025;-67
2021/08/25 01:18:34;;;;;;;11.73;6.47;;;14.20;99.90;;;;;;5051385;28;20045;-67
2021/08/25 01:21:01;;;;;;;6.95;4.70;;;14.10;99.90;;;;;;5051687;28;20033;-67
2021/08/25 01:23:28;;;;;;;11.73;6.43;;;14.10;99.90;;;;;;5051746;28;20033;-67
2021/08/25 01:25:58;;;;;;;9.75;5.82;;;14.00;99.90;;;;;;5050436;28;20174;-67
2021/08/25 01:28:28;;;;;;;7.10;4.95;;;14.10;99.90;;;;;;5050568;28;20028;-67
2021/08/25 01:30:55;;;;;;;9.52;5.70;;;14.10;99.90;;;;;;5055264;28;20493;-67
2021/08/25 01:33:28;;;;;;;8.63;5.53;;;14.00;99.90;;;;;;5052764;28;20033;-67
2021/08/25 01:35:54;;;;;;;9.18;5.38;;;14.00;99.90;;;;;;5035296;28;20032;-67
2021/08/25 01:38:53;;;;;;;8.65;5.60;;;14.00;99.90;;;;;;5035278;28;20113;-67
2021/08/25 01:41:24;;;;;;;9.45;5.68;;;13.90;99.90;;;;;;5049116;28;20067;-67
2021/08/25 01:43:58;;;;;;;10.07;6.10;;;13.90;99.90;;;;;;5035144;28;20466;-67
2021/08/25 01:46:36;;;;;;;9.57;5.45;;;13.80;99.90;;;;;;5050496;28;20040;-67
2021/08/25 01:49:06;;;;;;;10.07;5.72;;;13.80;99.90;;;;;;5035071;28;20428;-67
2021/08/25 01:51:34;;;;;;;9.10;5.88;;;13.80;99.90;;;;;;5050020;28;20033;-67
2021/08/25 01:54:00;;;;;;;10.75;5.88;;;13.80;99.90;;;;;;5034792;28;20044;-67
2021/08/25 01:56:26;;;;;;;7.57;5.22;;;13.80;99.90;;;;;;5034781;28;20497;-67
2021/08/25 01:59:01;;;;;;;8.32;5.47;;;13.80;99.90;;;;;;5050432;28;20123;-67
2021/08/25 02:01:27;;;;;;;8.65;5.15;;;13.90;99.90;;;;;;5034667;28;20048;-67
2021/08/25 02:03:53;;;;;;;9.90;6.18;;;13.80;99.90;;;;;;5039519;28;20032;-67
2021/08/25 02:06:19;;;;;;;9.00;5.63;;;13.70;99.90;;;;;;5054893;28;20032;-67
2021/08/25 02:08:44;;;;;;;8.38;5.45;;;13.70;99.90;;;;;;5054379;28;20031;-67
2021/08/25 02:11:11;;;;;;;7.90;5.53;;;13.80;99.90;;;;;;5053284;28;20031;-67
2021/08/25 02:13:36;;;;;;;7.10;5.30;;;13.70;99.90;;;;;;5054636;28;20033;-67
2021/08/25 02:16:02;;;;;;;9.80;5.78;;;13.60;99.90;;;;;;5069965;28;20044;-67
2021/08/25 02:18:28;;;;;;;8.27;5.30;;;13.60;99.90;;;;;;5053882;28;20055;-67
2021/08/25 02:20:54;;;;;;;9.18;5.80;;;13.60;99.90;;;;;;5054630;28;20116;-67
2021/08/25 02:23:19;;;;;;;13.65;5.80;;;13.60;99.90;;;;;;5054508;28;20041;-67
2021/08/25 02:25:45;;;;;;;9.65;6.00;;;13.50;99.90;;;;;;5053199;28;20036;-67
2021/08/25 02:28:11;;;;;;;7.40;5.20;;;13.50;99.90;;;;;;5054135;28;20041;-67
2021/08/25 02:30:37;;;;;;;10.32;5.57;;;13.50;99.90;;;;;;5052783;28;20025;-67
2021/08/25 02:33:03;;;;;;;11.43;5.55;;;13.40;99.90;;;;;;5053852;28;20059;-67
2021/08/25 02:35:30;;;;;;;8.25;5.70;;;13.40;99.90;;;;;;5036211;28;20638;-67
2021/08/25 02:37:56;;;;;;;8.85;4.80;;;13.40;99.90;;;;;;5034372;28;20084;-67
2021/08/25 02:40:22;;;;;;;7.45;5.32;;;13.40;99.90;;;;;;5033679;28;20052;-67
2021/08/25 02:42:47;;;;;;;7.43;5.40;;;13.40;99.90;;;;;;5032597;28;20434;-67
2021/08/25 02:45:13;;;;;;;11.10;5.97;;;13.40;99.90;;;;;;5034077;28;20025;-67
2021/08/25 02:47:39;;;;;;;7.82;5.70;;;13.40;99.90;;;;;;5033962;28;20382;-67
2021/08/25 02:50:07;;;;;;;9.27;5.35;;;13.30;99.90;;;;;;5033896;28;20025;-67
2021/08/25 02:52:34;;;;;;;8.00;5.45;;;13.40;99.90;;;;;;5033741;28;20033;-67
2021/08/25 02:55:00;;;;;;;9.65;6.32;;;13.30;99.90;;;;;;5033933;28;20497;-67
2021/08/25 02:57:25;;;;;;;8.98;5.60;;;13.30;99.90;;;;;;5033977;28;20479;-68
2021/08/25 02:59:51;;;;;;;9.00;5.70;;;13.30;99.90;;;;;;5033692;28;20026;-68
2021/08/25 03:02:17;;;;;;;8.73;5.60;;;13.30;99.90;;;;;;5032312;28;20037;-67
2021/08/25 03:04:42;;;;;;;9.48;5.60;;;13.30;99.90;;;;;;5045156;28;20017;-68
2021/08/25 03:07:08;;;;;;;10.75;6.07;;;13.20;99.90;;;;;;5053804;28;20040;-67
2021/08/25 03:09:34;;;;;;;8.40;5.70;;;13.20;99.90;;;;;;5053282;28;20036;-68
2021/08/25 03:12:00;;;;;;;9.15;6.15;;;13.20;99.90;;;;;;5053457;28;20425;-67
2021/08/25 03:14:25;;;;;;;9.48;5.88;;;13.10;99.90;;;;;;5053161;28;20025;-67
2021/08/25 03:16:51;;;;;;;14.30;5.80;;;13.20;99.90;;;;;;5052922;28;20110;-67
2021/08/25 03:19:17;;;;;;;9.60;6.35;;;13.20;99.90;;;;;;5053307;28;20021;-67
2021/08/25 03:21:42;;;;;;;9.93;6.47;;;13.10;99.90;;;;;;5053062;28;20032;-67
2021/08/25 03:24:09;;;;;;;11.23;6.60;;;13.00;99.90;;;;;;5053078;28;20507;-67
2021/08/25 03:26:36;;;;;;;11.23;6.43;;;13.00;99.90;;;;;;5053237;28;20036;-67
2021/08/25 03:29:01;;;;;;;10.20;6.30;;;13.00;99.90;;;;;;5051717;28;20037;-68
2021/08/25 03:31:27;;;;;;;11.90;6.45;;;13.00;99.90;;;;;;5052845;28;20059;-67
2021/08/25 03:33:53;;;;;;;9.50;6.10;;;12.90;99.90;;;;;;5052887;28;20037;-67
2021/08/25 03:36:19;;;;;;;12.18;6.03;;;13.00;99.90;;;;;;5051497;28;20120;-67
2021/08/25 03:38:45;;;;;;;9.50;6.00;;;13.00;99.90;;;;;;5052658;28;20504;-67
2021/08/25 03:41:10;;;;;;;13.20;5.88;;;13.10;99.90;;;;;;5047161;28;20484;-67
2021/08/25 03:43:42;;;;;;;8.90;5.57;;;13.10;99.90;;;;;;5032138;28;20029;-67
2021/08/25 03:46:08;;;;;;;10.52;5.95;;;13.10;99.90;;;;;;5032710;28;20037;-67
2021/08/25 03:48:34;;;;;;;9.65;6.18;;;13.10;99.90;;;;;;5032576;28;20036;-67
2021/08/25 03:51:00;;;;;;;11.55;6.15;;;13.10;99.90;;;;;;5034892;28;20056;-69
2021/08/25 03:53:25;;;;;;;8.88;6.38;;;13.00;99.90;;;;;;5032501;28;20041;-69
2021/08/25 03:55:51;;;;;;;8.10;5.82;;;12.90;99.90;;;;;;5031215;28;20060;-69
2021/08/25 03:58:17;;;;;;;12.20;5.97;;;12.80;99.90;;;;;;5032190;28;20509;-69
2021/08/25 04:00:43;;;;;;;9.43;6.00;;;12.90;99.90;;;;;;5032443;28;20029;-70
2021/08/25 04:03:08;;;;;;;9.80;5.93;;;12.80;99.90;;;;;;5032467;28;20398;-70
2021/08/25 04:05:34;;;;;;;10.13;5.88;;;12.80;99.90;;;;;;5032255;28;20421;-70
2021/08/25 04:08:00;;;;;;;9.60;5.60;;;12.80;99.90;;;;;;5032312;28;20552;-70
2021/08/25 04:10:25;;;;;;;8.35;5.88;;;12.70;99.90;;;;;;5031134;28;20033;-70
2021/08/25 04:12:51;;;;;;;11.02;6.07;;;12.80;99.90;;;;;;5030735;28;20456;-69
2021/08/25 04:15:18;;;;;;;10.43;6.28;;;12.80;99.90;;;;;;5032009;28;20120;-69
2021/08/25 04:17:44;;;;;;;10.00;6.03;;;12.80;99.90;;;;;;5030729;28;20081;-68
2021/08/25 04:20:11;;;;;;;10.70;6.80;;;12.80;99.90;;;;;;5046706;28;20061;-68
2021/08/25 04:22:37;;;;;;;9.18;6.18;;;12.80;99.90;;;;;;5031398;28;20034;-68
2021/08/25 04:25:03;;;;;;;11.00;6.50;;;12.80;99.90;;;;;;5031595;28;20040;-68
2021/08/25 04:27:29;;;;;;;9.15;5.90;;;12.70;99.90;;;;;;5032217;28;20041;-67
2021/08/25 04:29:55;;;;;;;8.85;6.30;;;12.60;99.90;;;;;;5047067;28;20504;-67
2021/08/25 04:32:20;;;;;;;9.18;6.53;;;12.70;99.90;;;;;;5047371;28;20047;-67
2021/08/25 04:34:46;;;;;;;9.63;6.43;;;12.70;99.90;;;;;;5047641;28;20385;-67
2021/08/25 04:37:12;;;;;;;12.65;7.53;;;12.60;99.90;;;;;;5032020;28;20029;-68
2021/08/25 04:39:37;;;;;;;10.75;6.70;;;12.60;99.90;;;;;;5031685;28;20032;-69
2021/08/25 04:42:03;;;;;;;9.60;5.70;;;12.60;99.90;;;;;;5022780;28;20076;-61
2021/08/25 04:44:29;;;;;;;13.07;6.80;;;12.60;99.90;;;;;;5012497;28;20030;-62
2021/08/25 04:46:55;;;;;;;9.38;6.07;;;12.60;99.90;;;;;;5012149;28;20103;-61
2021/08/25 04:49:20;;;;;;;9.15;5.95;;;12.60;99.90;;;;;;5012507;28;20041;-61
2021/08/25 04:51:46;;;;;;;13.38;6.38;;;12.60;99.90;;;;;;5012120;28;20030;-61
2021/08/25 04:54:12;;;;;;;9.15;6.00;;;12.70;99.90;;;;;;5027278;28;20037;-62
2021/08/25 04:56:38;;;;;;;10.27;5.95;;;12.80;99.90;;;;;;5010935;28;20038;-62
2021/08/25 04:59:04;;;;;;;8.98;6.03;;;12.90;99.90;;;;;;5016989;28;20022;-62
2021/08/25 05:01:29;;;;;;;12.52;6.78;;;12.80;99.90;;;;;;5030417;28;20029;-62
2021/08/25 05:03:55;;;;;;;11.52;6.00;;;12.80;99.90;;;;;;5034034;28;20571;-62
2021/08/25 05:06:21;;;;;;;8.65;5.95;;;12.90;99.90;;;;;;5036007;28;20649;-62
2021/08/25 05:08:47;;;;;;;10.07;5.63;;;12.90;99.90;;;;;;5035424;28;20042;-62
2021/08/25 05:11:12;;;;;;;11.32;6.25;;;13.00;99.90;;;;;;5033269;28;20040;-61
2021/08/25 05:13:41;;;;;;;9.88;5.15;;;13.20;99.90;;;;;;5024428;28;20045;-61
2021/08/25 05:16:12;;;;;;;9.43;5.88;;;13.10;99.90;;;;;;4998162;28;20037;-62
2021/08/25 05:18:39;;;;;;;8.90;5.82;;;13.10;99.90;;;;;;5014271;28;20045;-63
2021/08/25 05:21:05;;;;;;;8.80;5.70;;;13.10;99.90;;;;;;5015644;28;20037;-62
2021/08/25 05:23:31;;;;;;;8.82;5.68;;;13.10;99.90;;;;;;5015905;28;20717;-62
2021/08/25 05:25:59;;;;;;;12.07;5.93;;;13.20;99.90;;;;;;4997694;28;20037;-62
2021/08/25 05:28:25;;;;;;;10.38;6.05;;;13.10;99.90;;;;;;5014238;28;20188;-62
2021/08/25 05:30:51;;;;;;;10.98;5.82;;;13.10;99.90;;;;;;5014779;28;20533;-62
2021/08/25 05:33:17;;;;;;;8.07;5.10;;;13.30;99.90;;;;;;5028688;28;20159;-62
2021/08/25 05:35:43;;;;;;;9.52;5.57;;;13.40;99.90;;;;;;5013274;28;20053;-62
2021/08/25 05:38:08;;;;;;;11.70;5.35;;;13.60;99.90;;;;;;5013445;28;21861;-62
2021/08/25 05:40:34;;;;;;;9.60;5.18;;;13.70;99.90;;;;;;5013550;28;20034;-62
2021/08/25 05:43:00;;;;;;;11.13;4.78;;;13.80;99.90;;;;;;5012101;28;20045;-62
2021/08/25 05:45:26;;;;;;;8.38;5.40;;;13.80;99.90;;;;;;5014868;28;20030;-63
2021/08/25 05:47:56;;;;;;;8.85;4.93;;;13.80;99.90;;;;;;5015203;28;20117;-63
2021/08/25 05:50:21;;;;;;;9.38;4.88;;;13.90;99.90;;;;;;5015111;28;20038;-62
2021/08/25 05:52:47;;;;;;;7.05;4.93;;;13.90;99.90;;;;;;5015181;28;20037;-63
2021/08/25 05:55:13;;;;;;;6.80;4.60;;;14.00;99.90;;;;;;5015296;28;20025;-63
2021/08/25 05:57:45;;;;;;;10.18;4.45;;;14.20;99.90;;;;;;5035730;28;20607;-62
2021/08/25 06:00:16;;;;;;;9.18;5.40;;;14.20;99.90;;;;;;5033656;28;20034;-64
2021/08/25 06:02:43;;;;;;;10.30;5.35;;;14.20;99.90;;;;;;5034571;28;20045;-62
2021/08/25 06:05:11;;;;;;;7.50;5.22;;;14.20;99.90;;;;;;5033349;28;20041;-62
2021/08/25 06:07:36;;;;;;;7.72;5.22;;;14.20;99.90;;;;;;5034747;28;20033;-62
2021/08/25 06:10:03;;;;;;;10.00;4.95;;;14.30;99.90;;;;;;5034505;28;20035;-62
2021/08/25 06:12:29;;;;;;;9.25;5.00;;;14.30;99.90;;;;;;5033094;28;20474;-63
2021/08/25 06:14:54;;;;;;;11.10;4.82;;;14.40;99.90;;;;;;5033577;28;20109;-62
2021/08/25 06:17:20;;;;;;;8.15;4.85;;;14.40;99.90;;;;;;5032831;28;20474;-62
2021/08/25 06:19:46;;;;;;;8.20;4.70;;;14.50;99.90;;;;;;5032993;28;20112;-63
2021/08/25 06:22:12;;;;;;;8.13;4.28;;;14.60;99.90;;;;;;5034475;28;20030;-63
2021/08/25 06:24:37;;;;;;;11.48;4.88;;;14.70;99.90;;;;;;5034595;28;20105;-63
2021/08/25 06:27:04;;;;;;;8.45;4.25;;;14.90;99.90;;;;;;5034275;28;20463;-63
2021/08/25 06:29:30;;;;;;;7.60;4.57;;;15.00;99.90;;;;;;5032803;28;20072;-62
2021/08/25 06:31:56;;;;;;;6.80;4.70;;;15.00;99.90;;;;;;5033936;28;20079;-62
2021/08/25 06:34:21;;;;;;;6.47;4.22;;;15.10;99.90;;;;;;5034432;28;20046;-62
2021/08/25 06:36:48;;;;;;;8.82;4.22;;;15.10;99.90;;;;;;5034096;28;20057;-63
2021/08/25 06:39:14;;;;;;;9.10;4.30;;;15.10;99.90;;;;;;5033029;28;20033;-63
2021/08/25 06:41:40;;;;;;;7.80;4.72;;;15.20;99.90;;;;;;5032381;28;20045;-63
2021/08/25 06:44:06;;;;;;;10.73;5.00;;;15.30;99.90;;;;;;5032707;28;20029;-63
2021/08/25 06:46:32;;;;;;;8.18;3.90;;;15.30;99.90;;;;;;5033923;28;20033;-63
2021/08/25 06:48:58;;;;;;;6.93;4.45;;;15.50;99.90;;;;;;5033534;28;20498;-63
2021/08/25 06:51:24;;;;;;;8.20;4.65;;;15.60;99.90;;;;;;5033404;28;20021;-62
2021/08/25 06:53:49;;;;;;;10.20;4.13;;;15.60;99.90;;;;;;5034155;28;20033;-62
2021/08/25 06:56:15;;;;;;;7.50;3.63;;;15.80;99.90;;;;;;5033943;28;20033;-61
2021/08/25 06:58:41;;;;;;;7.22;4.68;;;15.90;99.90;;;;;;5033823;28;20076;-64
2021/08/25 07:01:06;;;;;;;7.28;4.10;;;16.00;99.90;;;;;;5031351;28;20479;-62
2021/08/25 07:03:34;;;;;;;6.47;3.88;;;16.30;99.90;;;;;;5013629;28;20378;-63
2021/08/25 07:06:00;;;;;;;9.55;4.13;;;16.40;99.90;;;;;;5012718;28;20426;-63
2021/08/25 07:08:26;;;;;;;8.25;4.65;;;16.40;99.90;;;;;;5013721;28;20033;-62
2021/08/25 07:10:51;;;;;;;7.15;4.43;;;16.40;99.90;;;;;;5013392;28;20113;-62
2021/08/25 07:13:17;;;;;;;6.22;4.35;;;16.40;99.90;;;;;;5013752;28;20383;-62
2021/08/25 07:15:43;;;;;;;6.93;3.97;;;16.50;99.90;;;;;;5013301;28;20040;-63
2021/08/25 07:18:09;;;;;;;9.15;4.35;;;16.50;99.90;;;;;;5013180;28;20085;-63
2021/08/25 07:20:34;;;;;;;7.07;4.03;;;16.50;99.90;;;;;;5013820;28;20064;-62
2021/08/25 07:23:00;;;;;;;8.35;3.92;;;16.70;99.90;;;;;;5013140;28;20033;-62
2021/08/25 07:25:26;;;;;;;6.20;3.78;;;16.80;99.90;;;;;;5013342;28;20030;-62
2021/08/25 07:27:51;;;;;;;5.95;3.78;;;16.90;99.90;;;;;;5011886;28;20034;-62
2021/08/25 07:30:17;;;;;;;6.75;3.55;;;16.80;99.90;;;;;;5012259;28;20084;-62
2021/08/25 07:32:43;;;;;;;9.50;4.85;;;17.00;99.90;;;;;;5013383;28;20092;-62
2021/08/25 07:35:11;;;;;;;10.95;3.92;;;17.10;99.90;;;;;;5013487;28;20049;-63
2021/08/25 07:37:37;;;;;;;7.72;4.15;;;17.30;99.90;;;;;;5013421;28;20034;-64
2021/08/25 07:40:06;;;;;;;7.22;3.83;;;17.40;99.90;;;;;;5011634;28;20478;-63
2021/08/25 07:42:32;;;;;;;7.47;3.90;;;17.30;99.90;;;;;;5013152;28;20043;-63
2021/08/25 07:44:58;;;;;;;6.88;3.70;;;17.30;99.90;;;;;;5012826;28;20026;-61
2021/08/25 07:47:24;;;;;;;5.82;3.78;;;17.30;99.90;;;;;;5011701;28;20087;-60
2021/08/25 07:49:50;;;;;;;5.70;3.60;;;17.40;99.90;;;;;;5011736;28;20044;-61
2021/08/25 07:52:16;;;;;;;6.70;3.72;;;17.50;99.90;;;;;;5013166;28;20038;-61
2021/08/25 07:54:42;;;;;;;8.30;4.10;;;17.50;99.90;;;;;;5033725;28;20030;-61
2021/08/25 07:57:08;;;;;;;8.02;3.53;;;17.60;99.90;;;;;;5032391;28;20037;-63
2021/08/25 07:59:33;;;;;;;6.07;3.40;;;17.80;99.90;;;;;;5032441;28;20378;-63
2021/08/25 08:01:59;;;;;;;5.82;3.53;;;17.70;99.90;;;;;;5032584;28;20030;-63
2021/08/25 08:04:26;;;;;;;6.28;3.63;;;17.80;99.90;;;;;;5032489;28;20079;-63
2021/08/25 08:06:53;;;;;;;11.45;4.03;;;17.90;99.90;;;;;;5031089;28;20025;-63
2021/08/25 08:09:19;;;;;;;10.13;3.80;;;18.10;99.90;;;;;;5032569;28;20029;-63
2021/08/25 08:11:46;;;;;;;8.18;4.20;;;18.30;99.90;;;;;;5032361;28;20022;-64
2021/08/25 08:14:12;;;;;;;6.22;3.33;;;18.10;99.90;;;;;;5032490;28;20034;-63
2021/08/25 08:16:39;;;;;;;6.90;3.30;;;18.10;99.90;;;;;;5032176;28;20540;-63
2021/08/25 08:19:18;;;;;;;6.25;3.10;;;18.30;99.90;;;;;;5031993;28;20075;-62
2021/08/25 08:21:45;;;;;;;7.40;3.60;;;18.20;99.90;;;;;;5031025;28;20108;-61
2021/08/25 08:24:11;;;;;;;8.43;3.10;;;18.30;99.90;;;;;;5014692;28;20478;-61
2021/08/25 08:26:37;;;;;;;5.68;3.30;;;18.60;99.90;;;;;;5030909;28;20112;-61
2021/08/25 08:29:04;;;;;;;6.57;3.10;;;18.70;99.90;;;;;;5030612;28;20111;-62
2021/08/25 08:31:31;;;;;;;5.90;2.97;;;18.90;99.90;;;;;;5030912;28;20045;-62
2021/08/25 08:33:57;;;;;;;5.60;3.30;;;18.90;99.90;;;;;;5030626;28;20044;-62
2021/08/25 08:36:22;;;;;;;4.90;2.90;;;18.90;99.90;;;;;;5032109;28;20033;-61
2021/08/25 08:38:48;;;;;;;6.25;3.15;;;18.80;99.90;;;;;;5036732;28;20044;-62
2021/08/25 08:41:14;;;;;;;6.57;3.22;;;18.90;99.90;;;;;;5038894;28;20114;-62
2021/08/25 08:43:49;;;;;;;7.53;3.05;;;19.10;99.90;;;;;;5037468;28;20131;-62
2021/08/25 08:46:21;;;;;;;5.97;3.20;;;19.00;99.90;;;;;;5038637;28;20111;-61
2021/08/25 08:48:51;;;;;;;5.40;3.15;;;19.10;99.90;;;;;;5038463;28;20025;-63
2021/08/25 08:51:24;;;;;;;5.65;3.25;;;19.10;99.90;;;;;;5037574;28;20040;-61
2021/08/25 08:53:52;;;;;;;6.13;3.33;;;19.20;99.90;;;;;;5037173;28;20037;-62
2021/08/25 08:56:19;;;;;;;6.35;3.15;;;19.30;99.90;;;;;;5038701;28;20033;-62
2021/08/25 08:58:45;;;;;;;5.70;2.65;;;19.50;99.90;;;;;;5038647;28;20033;-62
2021/08/25 09:01:11;;;;;;;6.53;3.00;;;19.70;99.90;;;;;;5038483;28;20080;-62
2021/08/25 09:03:39;;;;;;;5.75;2.97;;;19.90;99.90;;;;;;5038601;28;20036;-62
2021/08/25 09:06:07;;;;;;;4.68;2.67;;;20.00;99.90;;;;;;5037148;28;20033;-62
2021/08/25 09:08:40;;;;;;;6.38;3.42;;;20.10;99.90;;;;;;5038283;28;20029;-62
2021/08/25 09:11:17;;;;;;;4.60;2.80;;;20.10;99.90;;;;;;5036906;28;20030;-62
2021/08/25 09:13:51;;;;;;;6.28;3.10;;;20.20;99.90;;;;;;5036834;28;20049;-62
2021/08/25 09:16:31;;;;;;;5.22;3.08;;;20.20;99.90;;;;;;5038421;28;20045;-62
2021/08/25 09:19:10;;;;;;;8.80;3.03;;;20.10;99.90;;;;;;5037856;28;20410;-63
2021/08/25 09:21:42;;;;;;;6.43;2.85;;;20.20;99.90;;;;;;5038085;28;20140;-62
2021/08/25 09:24:09;;;;;;;6.28;2.97;;;20.10;99.90;;;;;;5038312;28;20120;-62
2021/08/25 09:26:57;;;;;;;6.50;3.45;;;20.30;99.90;;;;;;5038459;28;20037;-62
2021/08/25 09:29:25;;;;;;;6.78;3.45;;;20.50;99.90;;;;;;5030918;28;20065;-62
2021/08/25 09:31:51;;;;;;;4.82;2.85;;;20.80;99.90;;;;;;5038097;28;20072;-63
2021/08/25 09:34:43;;;;;;;8.60;2.92;;;20.70;99.90;;;;;;5037075;28;20125;-62
2021/08/25 09:37:14;;;;;;;5.03;3.05;;;21.00;99.90;;;;;;5035187;28;20045;-62
2021/08/25 09:39:47;;;;;;;5.85;3.00;;;21.20;99.90;;;;;;5036838;28;20084;-62
2021/08/25 09:42:17;;;;;;;4.68;2.75;;;21.20;99.90;;;;;;5037881;28;20029;-62
2021/08/25 09:44:44;;;;;;;7.10;3.72;;;21.20;99.90;;;;;;5037013;28;20064;-62
2021/08/25 09:47:10;;;;;;;6.18;3.17;;;21.20;99.90;;;;;;5036692;28;20088;-61
2021/08/25 09:49:37;;;;;;;7.53;3.10;;;21.30;99.60;;;;;;5034114;28;20065;-62
2021/08/25 09:52:05;;;;;;;7.22;3.28;;;21.40;99.60;;;;;;5033565;28;20064;-62
2021/08/25 09:54:31;;;;;;;6.45;3.33;;;21.40;99.50;;;;;;5034655;28;20040;-63
2021/08/25 09:56:57;;;;;;;7.25;3.03;;;21.70;99.60;;;;;;5034854;28;20029;-62
2021/08/25 09:59:23;;;;;;;5.30;2.97;;;22.00;99.00;;;;;;5036045;28;20041;-61
2021/08/25 10:01:52;;;;;;;6.82;2.92;;;22.10;98.50;;;;;;5033503;28;20631;-62
2021/08/25 10:04:18;;;;;;;7.43;3.13;;;22.20;98.50;;;;;;5034529;28;20387;-62
2021/08/25 10:06:50;;;;;;;5.72;3.13;;;22.40;98.00;;;;;;5033557;28;20033;-62
2021/08/25 10:09:18;;;;;;;6.38;2.80;;;22.20;97.50;;;;;;5034724;28;20029;-62
2021/08/25 10:11:51;;;;;;;5.57;3.20;;;22.40;96.90;;;;;;5034612;28;20048;-61
2021/08/25 10:14:18;;;;;;;7.75;3.40;;;22.60;97.10;;;;;;5033613;28;20155;-62
2021/08/25 10:16:52;;;;;;;5.80;2.70;;;22.70;96.80;;;;;;5033005;28;20025;-63
2021/08/25 10:19:37;;;;;;;5.63;2.95;;;22.80;96.30;;;;;;5033237;28;20120;-62
2021/08/25 10:22:15;;;;;;;7.63;3.35;;;22.80;95.70;;;;;;5033218;28;20029;-62
2021/08/25 10:24:52;;;;;;;7.07;2.80;;;23.20;94.80;;;;;;5034445;28;20117;-62
2021/08/25 10:27:19;;;;;;;7.00;2.55;;;23.30;95.00;;;;;;5034326;28;20029;-62
2021/08/25 10:30:08;;;;;;;5.78;2.70;;;23.20;95.00;;;;;;5034130;28;20034;-61
2021/08/25 10:32:51;;;;;;;5.65;3.03;;;23.20;94.80;;;;;;5033875;28;20513;-61
2021/08/25 10:35:32;;;;;;;5.70;3.22;;;23.20;94.90;;;;;;5032879;28;20075;-61
2021/08/25 10:38:41;;;;;;;5.47;2.83;;;23.10;94.90;;;;;;5032601;28;20044;-62
2021/08/25 10:41:21;;;;;;;5.28;2.88;;;23.00;94.80;;;;;;5033588;28;20041;-62
2021/08/25 10:43:47;;;;;;;7.25;2.80;;;23.10;94.50;;;;;;5033968;28;20065;-62
2021/08/25 10:46:17;;;;;;;5.43;2.55;;;23.40;93.70;;;;;;5033961;28;20033;-62
2021/08/25 10:48:55;;;;;;;5.45;2.90;;;23.00;92.90;;;;;;5034077;28;20072;-62
2021/08/25 10:51:39;;;;;;;5.15;2.88;;;23.30;93.40;;;;;;5032290;28;20045;-62
2021/08/25 10:54:11;;;;;;;5.45;2.80;;;23.50;93.50;;;;;;5033945;28;20100;-63
2021/08/25 10:56:46;;;;;;;5.22;2.95;;;23.70;92.60;;;;;;5032528;28;20037;-63
2021/08/25 10:59:20;;;;;;;5.93;3.22;;;23.90;92.50;;;;;;5033747;28;20372;-63
2021/08/25 11:01:48;;;;;;;7.88;3.17;;;24.10;92.20;;;;;;5032284;28;20387;-62
2021/08/25 11:04:22;;;;;;;5.60;2.67;;;24.30;91.30;;;;;;5032385;28;20045;-62
2021/08/25 11:06:55;;;;;;;6.53;3.03;;;23.60;91.00;;;;;;5033356;28;20060;-63
2021/08/25 11:09:25;;;;;;;6.35;3.00;;;23.70;91.00;;;;;;5032608;28;20095;-62
2021/08/25 11:11:59;;;;;;;7.25;3.42;;;23.90;90.90;;;;;;5031948;28;20112;-62
2021/08/25 11:14:39;;;;;;;6.00;2.90;;;24.10;91.40;;;;;;5033435;28;20095;-62
2021/08/25 11:17:12;;;;;;;6.43;3.25;;;24.10;92.10;;;;;;5033170;28;20490;-61
2021/08/25 11:19:54;;;;;;;7.93;3.25;;;24.00;90.50;;;;;;5032358;28;20033;-62
2021/08/25 11:22:54;;;;;;;6.47;3.10;;;23.90;91.30;;;;;;5033171;28;20095;-62
2021/08/25 11:25:20;;;;;;;6.90;2.93;;;24.60;90.30;;;;;;5018263;28;20132;-63
2021/08/25 11:27:50;;;;;;;5.25;2.80;;;24.50;90.50;;;;;;5033307;28;20375;-61
2021/08/25 11:30:20;;;;;;;6.82;3.45;;;24.30;90.30;;;;;;5032948;28;20033;-62
2021/08/25 11:32:47;;;;;;;5.32;2.75;;;24.10;90.00;;;;;;5032890;28;20048;-63
2021/08/25 11:35:24;;;;;;;5.75;2.90;;;23.70;90.10;;;;;;5033036;28;20073;-63
2021/08/25 11:37:50;;;;;;;5.35;2.67;;;23.90;90.70;;;;;;5032975;28;20025;-63
2021/08/25 11:40:21;;;;;;;4.75;2.80;;;24.30;89.90;;;;;;5032873;28;20041;-63
2021/08/25 11:42:47;;;;;;;5.05;2.83;;;24.80;91.00;;;;;;5032901;28;20030;-62
2021/08/25 11:45:22;;;;;;;6.32;3.22;;;25.10;89.50;;;;;;5032871;28;20080;-62
2021/08/25 11:47:53;;;;;;;5.78;3.20;;;25.10;89.40;;;;;;5032707;28;20049;-62
2021/08/25 11:50:22;;;;;;;6.75;3.53;;;25.40;88.40;;;;;;5034207;28;20029;-62
2021/08/25 11:52:49;;;;;;;5.22;2.83;;;25.40;86.70;;;;;;5031179;28;20094;-62
2021/08/25 11:55:16;;;;;;;5.88;2.78;;;25.30;86.40;;;;;;5032600;28;20033;-62
2021/08/25 11:57:51;;;;;;;5.80;2.85;;;25.50;86.40;;;;;;5014763;28;20042;-62
2021/08/25 12:00:37;;;;;;;5.32;2.72;;;25.40;86.10;;;;;;5031275;28;20033;-61
2021/08/25 12:03:05;;;;;;;5.53;3.05;;;25.50;85.80;;;;;;5031038;28;20021;-63
2021/08/25 12:05:40;;;;;;;6.93;2.92;;;25.40;85.50;;;;;;5031490;28;20555;-62
2021/08/25 12:08:09;;;;;;;5.90;3.00;;;24.40;87.50;;;;;;5031028;28;20124;-62
2021/08/25 12:10:42;;;;;;;5.43;2.90;;;24.60;87.10;;;;;;5032373;28;20417;-62
2021/08/25 12:13:10;;;;;;;6.53;3.28;;;24.60;86.90;;;;;;5030044;28;20063;-61
2021/08/25 12:15:50;;;;;;;9.05;3.42;;;23.80;88.80;;;;;;5031091;28;20041;-62
2021/08/25 12:18:25;;;;;;;5.30;2.80;;;24.00;88.10;;;;;;5031884;28;20041;-63
2021/08/25 12:20:57;;;;;;;6.13;3.08;;;24.20;88.50;;;;;;5032418;28;20128;-63
2021/08/25 12:23:27;;;;;;;5.43;2.97;;;24.60;87.00;;;;;;5031254;28;20045;-63
2021/08/25 12:25:57;;;;;;;5.27;2.40;;;24.30;87.60;;;;;;5031163;28;20057;-63
2021/08/25 12:28:39;;;;;;;5.23;2.60;;;24.80;87.70;;;;;;5032126;28;20033;-63
2021/08/25 12:31:21;;;;;;;6.32;3.10;;;25.30;87.50;;;;;;5030749;28;20373;-63
2021/08/25 12:34:02;;;;;;;6.05;3.10;;;25.30;84.90;;;;;;5032378;28;20116;-64
2021/08/25 12:36:37;;;;;;;6.82;3.05;;;25.60;84.80;;;;;;5030861;28;20083;-62
2021/08/25 12:39:05;;;;;;;5.93;3.28;;;25.80;85.80;;;;;;5032063;28;20144;-62
2021/08/25 12:41:32;;;;;;;9.77;3.67;;;25.40;83.20;;;;;;5031871;28;20117;-62
2021/08/25 12:43:59;;;;;;;7.03;3.05;;;25.50;84.40;;;;;;5031636;28;20088;-63
2021/08/25 12:46:25;;;;;;;6.00;3.28;;;26.00;83.00;;;;;;5030567;28;20037;-62
2021/08/25 12:48:51;;;;;;;6.32;3.42;;;25.80;83.60;;;;;;5030857;28;20033;-63
2021/08/25 12:51:20;;;;;;;5.95;3.15;;;26.00;83.40;;;;;;5032020;28;20022;-63
2021/08/25 12:53:51;;;;;;;6.10;3.30;;;26.20;82.30;;;;;;5030701;28;20390;-62